Aeroporto :
LOGIN :

Iscrizione | Disclaimer

   EN    FR    IT 

 










Sommario :    VFR   VFR Marginale   IFR   IFR Intensivo   IFR Molto Intensivo
Visibilità : 
Base nubi : 
>= 8 km
>= 3000ft
5 / 8 km
1000 / 3000 ft
1500m / 5 km
500 / 1000 ft
800 / 1500m
200 / 500 ft
< 800m
< 200 ft
Simboli :   Temporali  Nebbia  Neve Forte  Precipitazioni Forti  Vento > 20 kt
SIGMETs :   Varie  Temporali  Ghiacco  Turbolenza  Onda orograficha  Ceneri Vulcaniche






- Altitudine del aeroporto : 72 ft
- Codice IATA : UDE


EHVK - Volkel Airbase

ULTIMO METAR :
  • 260410Z AUTO 00000KT 7000 BR OVC250 07/07 Q1035 WHT

METARs OBSOLETI :
  • 260355Z AUTO 06001KT 9999 OVC250 07/07 Q1035 BLU
  • 260325Z AUTO VRB01KT 6000 BR OVC280 07/07 Q1035 WHT
  • 260318Z AUTO 35001KT 6000 BR OVC280 07/07 Q1035 WHT
  • 260313Z AUTO 33001KT 8000 BR OVC280 07/07 Q1035 BLU
  • 260255Z AUTO 31001KT 9999 OVC300 07/07 Q1035 BLU
  • 260225Z AUTO 00000KT 9999 OVC310 07/07 Q1035 BLU
  • 260155Z AUTO VRB01KT 9999 SCT340 08/07 Q1035 BLU
  • 260125Z AUTO 00000KT 9999 NCD 08/08 Q1035 BLU

TAF TAF EHVK
Valido dal 26 a 01 ore il 26 a 13 ore UTC


260034Z 2601/2613 VRB02KT CAVOK
BECMG 2608/2610 02006KT



MetMap, La meteo Aeronautica in un colpo d'occhio ! - Copyright ORBIFLY Dicembre 2007 - Disclaimer

ORBIFLY MET'MAP TEAM :

Programmazione e sviluppo : Alexandra Zaïnal
Concezione : Baudouin d'Aumeries
Aiuto per la programmazione : Marc-Olivier Méhu
Supporto tecnico e logistico : Manuel Goepfert
Aiuto per la traduzione : Arnaldo La Scala

Contatto : metmap@orbifly.com




FONTI E CREDITI :

   NOAA